Time;durP1;ratioP1;P1;durP2;ratioP2;P2;SDS_P1;SDS_P2;PMS_P1;PMS_P2;Temp;Humidity;BMP_temperature;BMP_pressure;BME280_temperature;BME280_humidity;BME280_pressure;Samples;Min_cycle;Max_cycle;Signal;HPM_P1;HPM_P2
2021/12/05 00:21:45;;;;;;;83.78;48.38;;;17.00;86.80;;;;;;4159191;28;20055;-67
2021/12/05 00:26:07;;;;;;;74.78;46.10;;;17.10;87.00;;;;;;4167206;28;20119;-67
2021/12/05 00:48:51;;;;;;;824.47;89.85;;;17.00;85.70;;;;;;4158346;28;20053;-67
2021/12/05 00:57:55;;;;;;;58.15;34.85;;;17.30;84.00;;;;;;4157409;28;20053;-66
2021/12/05 01:13:42;;;;;;;67.10;31.65;;;17.80;81.60;;;;;;4156056;28;20352;-67
2021/12/05 01:15:47;;;;;;;53.33;27.48;;;17.80;80.80;;;;;;4156656;28;20128;-67
2021/12/05 01:18:06;;;;;;;46.00;26.10;;;17.80;81.40;;;;;;4158302;28;20440;-66
2021/12/05 01:20:18;;;;;;;38.08;23.63;;;17.90;79.20;;;;;;4155103;28;20085;-67
2021/12/05 01:22:28;;;;;;;40.35;23.50;;;17.80;79.20;;;;;;4155896;28;20038;-67
2021/12/05 01:24:51;;;;;;;41.58;22.13;;;17.90;78.60;;;;;;4156574;28;20053;-67
2021/12/05 01:27:26;;;;;;;41.42;22.23;;;17.90;77.20;;;;;;4173060;28;20074;-67
2021/12/05 01:36:25;;;;;;;;;;;18.30;77.60;;;;;;4158855;28;20041;-68
2021/12/05 01:41:05;;;;;;;40.15;21.40;;;18.40;75.90;;;;;;4157125;28;20286;-67
2021/12/05 01:48:05;;;;;;;37.00;20.58;;;18.60;74.30;;;;;;4156537;28;20041;-66
2021/12/05 01:52:41;;;;;;;37.20;21.20;;;18.80;74.90;;;;;;4159486;28;20436;-66
2021/12/05 02:01:41;;;;;;;41.40;24.33;;;19.00;71.70;;;;;;4158419;28;20500;-67
2021/12/05 02:08:47;;;;;;;32.47;19.85;;;19.20;72.00;;;;;;4156304;28;20055;-67
2021/12/05 02:11:16;;;;;;;27.23;15.65;;;19.30;71.90;;;;;;4164680;28;20320;-67
2021/12/05 02:40:24;;;;;;;41.83;23.23;;;19.90;67.70;;;;;;4140666;28;20041;-66
2021/12/05 02:44:31;;;;;;;30.70;18.17;;;20.00;67.50;;;;;;4153557;28;20049;-67
2021/12/05 02:46:36;;;;;;;33.30;17.20;;;20.10;67.50;;;;;;4158153;28;20514;-67
2021/12/05 02:48:41;;;;;;;29.88;17.58;;;20.20;67.40;;;;;;4156124;28;20041;-67
2021/12/05 02:50:46;;;;;;;28.38;16.73;;;20.30;66.80;;;;;;4156916;28;20551;-67
2021/12/05 02:52:57;;;;;;;30.45;17.42;;;20.20;66.80;;;;;;4158838;28;20045;-67
2021/12/05 02:55:14;;;;;;;29.33;16.55;;;20.30;67.50;;;;;;4172548;28;20048;-67
2021/12/05 02:57:29;;;;;;;33.50;16.60;;;20.40;67.00;;;;;;4162397;28;20127;-67
2021/12/05 03:01:46;;;;;;;24.00;15.48;;;20.50;66.80;;;;;;4173558;28;20049;-67
2021/12/05 03:03:53;;;;;;;31.08;17.40;;;20.50;66.40;;;;;;4175261;28;20040;-67
2021/12/05 03:06:05;;;;;;;32.15;16.10;;;20.60;66.60;;;;;;4146572;28;20153;-66
2021/12/05 03:08:09;;;;;;;32.55;17.40;;;20.60;66.70;;;;;;4148985;28;20049;-66
2021/12/05 03:10:18;;;;;;;24.70;16.70;;;20.80;66.10;;;;;;4131291;28;20041;-67
2021/12/05 03:12:22;;;;;;;28.38;15.52;;;20.80;65.10;;;;;;4133347;28;20798;-66
2021/12/05 03:14:27;;;;;;;25.63;15.20;;;20.90;65.00;;;;;;4155415;28;20057;-67
2021/12/05 03:16:33;;;;;;;25.58;15.73;;;20.90;64.00;;;;;;4157275;28;20147;-66
2021/12/05 03:18:38;;;;;;;26.48;15.98;;;20.90;64.80;;;;;;4140793;28;20073;-66
2021/12/05 03:20:42;;;;;;;28.35;15.15;;;21.00;65.50;;;;;;4144196;28;20301;-66
2021/12/05 03:22:51;;;;;;;22.15;14.75;;;21.10;64.40;;;;;;4157543;28;20038;-66
2021/12/05 03:24:56;;;;;;;25.75;14.35;;;21.20;63.30;;;;;;4160552;28;20045;-67
2021/12/05 03:27:01;;;;;;;25.38;14.18;;;21.30;63.50;;;;;;4154331;28;20136;-68
2021/12/05 03:29:07;;;;;;;28.35;14.10;;;21.40;62.00;;;;;;4152688;28;20081;-67
2021/12/05 03:31:12;;;;;;;27.48;13.73;;;21.40;62.10;;;;;;4145147;28;20046;-67
2021/12/05 03:33:17;;;;;;;26.50;13.65;;;21.40;61.40;;;;;;4144540;28;20139;-67
2021/12/05 03:35:24;;;;;;;24.48;13.63;;;21.60;61.20;;;;;;4159231;28;20045;-67
2021/12/05 03:37:29;;;;;;;21.80;13.35;;;21.60;61.10;;;;;;4161750;28;20045;-67
2021/12/05 03:39:37;;;;;;;22.73;13.15;;;21.70;61.30;;;;;;4162602;28;20402;-67
2021/12/05 03:41:42;;;;;;;26.63;13.73;;;21.90;59.70;;;;;;4161994;28;20096;-67
2021/12/05 03:43:49;;;;;;;32.40;12.50;;;21.80;60.60;;;;;;4163609;28;20053;-68
2021/12/05 03:45:55;;;;;;;25.75;12.85;;;21.80;59.60;;;;;;4162226;28;20067;-67
2021/12/05 03:48:01;;;;;;;20.48;12.52;;;22.00;59.60;;;;;;4162369;28;20041;-66
2021/12/05 03:50:09;;;;;;;31.23;13.45;;;22.00;58.60;;;;;;4162290;28;20120;-67
2021/12/05 03:52:15;;;;;;;25.98;13.77;;;21.90;59.10;;;;;;4163693;28;20554;-67
2021/12/05 03:54:19;;;;;;;23.35;12.88;;;22.00;60.00;;;;;;4163318;28;20046;-67
2021/12/05 03:56:24;;;;;;;26.25;12.82;;;22.20;59.20;;;;;;4163541;28;20046;-67
2021/12/05 03:58:28;;;;;;;23.58;12.40;;;22.10;58.20;;;;;;4162550;28;20095;-67
2021/12/05 04:00:38;;;;;;;20.05;12.25;;;22.20;58.80;;;;;;4195371;28;20040;-67
2021/12/05 04:02:44;;;;;;;29.00;11.82;;;22.20;58.30;;;;;;4159390;28;20045;-67
2021/12/05 04:04:55;;;;;;;26.83;12.95;;;22.40;58.00;;;;;;4180053;28;20080;-66
2021/12/05 04:07:01;;;;;;;25.80;12.85;;;22.30;58.80;;;;;;4161977;28;20041;-67
2021/12/05 04:09:09;;;;;;;27.50;12.40;;;22.60;58.50;;;;;;4162112;28;20132;-67
2021/12/05 04:11:25;;;;;;;29.08;12.35;;;22.80;57.30;;;;;;4154574;28;20534;-67
2021/12/05 04:13:31;;;;;;;28.10;11.63;;;22.70;57.00;;;;;;4194002;28;20049;-67
2021/12/05 04:15:36;;;;;;;18.77;11.10;;;22.70;55.40;;;;;;4161601;28;20041;-67
2021/12/05 04:17:41;;;;;;;26.25;12.57;;;22.80;55.90;;;;;;4161409;28;20577;-67
2021/12/05 04:19:45;;;;;;;20.75;11.55;;;23.00;55.30;;;;;;4161597;28;20037;-66
2021/12/05 04:21:50;;;;;;;23.58;11.07;;;22.90;56.00;;;;;;4162769;28;20407;-66
2021/12/05 04:23:54;;;;;;;22.85;9.48;;;22.90;55.60;;;;;;4161091;28;20041;-64
2021/12/05 04:25:59;;;;;;;23.90;9.55;;;23.00;54.90;;;;;;4161207;28;20103;-66
2021/12/05 04:28:06;;;;;;;17.10;8.90;;;23.10;53.70;;;;;;4167436;28;20049;-66
2021/12/05 04:30:11;;;;;;;23.65;9.38;;;23.30;53.10;;;;;;4144863;28;20049;-66
2021/12/05 04:32:16;;;;;;;20.77;9.05;;;23.30;51.90;;;;;;4158594;28;20045;-66
2021/12/05 04:34:21;;;;;;;22.42;9.27;;;23.30;53.20;;;;;;4160718;28;20041;-66
2021/12/05 04:36:26;;;;;;;21.08;10.00;;;23.30;53.50;;;;;;4161418;28;20038;-66
2021/12/05 04:38:32;;;;;;;19.10;10.00;;;23.30;52.60;;;;;;4160925;28;20045;-67
2021/12/05 04:40:39;;;;;;;22.10;9.27;;;23.30;51.80;;;;;;4162357;28;20049;-67
2021/12/05 04:42:44;;;;;;;14.30;9.00;;;23.30;52.00;;;;;;4143667;28;20046;-67
2021/12/05 04:44:50;;;;;;;20.30;8.90;;;23.40;53.30;;;;;;4161370;28;20045;-66
2021/12/05 04:46:55;;;;;;;22.60;9.10;;;23.50;54.10;;;;;;4162977;28;20061;-67
2021/12/05 04:49:00;;;;;;;18.75;9.40;;;23.50;53.60;;;;;;4161155;28;20136;-67
2021/12/05 04:51:05;;;;;;;18.35;9.20;;;23.60;53.00;;;;;;4160727;28;20046;-66
2021/12/05 04:53:09;;;;;;;20.90;9.60;;;23.50;53.50;;;;;;4160322;28;20115;-67
2021/12/05 04:55:13;;;;;;;16.90;9.40;;;23.60;53.40;;;;;;4160664;28;20110;-68
2021/12/05 04:57:18;;;;;;;16.98;8.90;;;23.70;53.30;;;;;;4154687;28;20408;-66
2021/12/05 04:59:25;;;;;;;17.90;9.55;;;23.80;52.60;;;;;;4146593;28;20354;-66
2021/12/05 05:01:29;;;;;;;17.08;9.30;;;24.00;52.80;;;;;;4165908;28;20045;-66
2021/12/05 05:03:34;;;;;;;20.02;10.57;;;23.90;52.60;;;;;;4161841;28;20057;-67
2021/12/05 05:05:43;;;;;;;24.00;9.55;;;23.80;53.00;;;;;;4161937;28;20488;-66
2021/12/05 05:07:49;;;;;;;21.92;10.23;;;23.70;52.90;;;;;;4148891;28;20049;-66
2021/12/05 05:09:57;;;;;;;17.40;9.90;;;23.80;53.50;;;;;;4131876;28;20061;-66
2021/12/05 05:12:02;;;;;;;16.13;9.07;;;23.80;53.70;;;;;;4166443;28;20090;-66
2021/12/05 05:14:06;;;;;;;18.17;9.57;;;23.80;53.70;;;;;;4140600;28;20574;-67
2021/12/05 05:16:13;;;;;;;17.77;9.50;;;24.00;54.60;;;;;;4154891;28;20136;-67
2021/12/05 05:18:18;;;;;;;19.17;9.73;;;24.10;53.80;;;;;;4157195;28;20510;-67
2021/12/05 05:20:34;;;;;;;15.07;9.57;;;24.10;54.10;;;;;;4161700;28;20045;-66
2021/12/05 05:22:45;;;;;;;21.15;10.27;;;24.10;52.90;;;;;;4161642;28;20711;-67
2021/12/05 05:27:18;;;;;;;19.42;9.15;;;24.20;53.80;;;;;;4154166;28;20057;-67
2021/12/05 05:49:13;;;;;;;18.50;9.65;;;24.40;53.90;;;;;;4160721;28;20530;-68
2021/12/05 05:51:18;;;;;;;15.23;9.20;;;24.50;53.90;;;;;;4160661;28;20570;-67
2021/12/05 05:53:22;;;;;;;20.08;9.38;;;24.60;53.40;;;;;;4158212;28;20654;-68
2021/12/05 05:55:26;;;;;;;18.50;9.30;;;24.70;53.80;;;;;;4159781;28;20080;-68
2021/12/05 05:57:47;;;;;;;15.43;8.52;;;24.60;53.80;;;;;;4159457;28;20069;-67
2021/12/05 06:00:07;;;;;;;18.10;9.57;;;24.60;52.90;;;;;;4160808;28;20123;-68
2021/12/05 06:04:19;;;;;;;21.77;9.73;;;24.80;53.20;;;;;;4159028;28;20111;-68
2021/12/05 06:06:27;;;;;;;19.88;8.88;;;24.90;53.40;;;;;;4150377;28;20119;-68
2021/12/05 06:08:33;;;;;;;18.80;8.20;;;25.10;53.70;;;;;;4159463;28;20038;-68
2021/12/05 06:10:38;;;;;;;19.35;8.55;;;25.20;52.00;;;;;;4160508;28;20073;-68
2021/12/05 06:12:42;;;;;;;24.15;8.13;;;25.10;53.30;;;;;;4157443;28;20132;-68
2021/12/05 06:14:46;;;;;;;16.65;8.60;;;25.00;53.20;;;;;;4159932;28;20056;-67
2021/12/05 06:16:51;;;;;;;15.10;8.27;;;25.00;52.00;;;;;;4160274;28;20076;-67
2021/12/05 06:18:56;;;;;;;21.92;8.45;;;25.10;52.30;;;;;;4159869;28;20839;-67
2021/12/05 06:21:00;;;;;;;17.58;7.47;;;25.10;52.50;;;;;;4158625;28;20396;-66
2021/12/05 06:23:05;;;;;;;19.45;8.20;;;25.10;52.80;;;;;;4157766;28;20044;-67
2021/12/05 06:25:14;;;;;;;18.08;8.48;;;25.20;52.30;;;;;;4159121;28;20435;-67
2021/12/05 06:27:18;;;;;;;17.35;8.05;;;25.30;52.60;;;;;;4159371;28;20048;-67
2021/12/05 06:29:23;;;;;;;15.38;8.32;;;25.30;51.80;;;;;;4157834;28;20064;-67
2021/12/05 06:47:14;;;;;;;19.02;8.98;;;25.30;52.20;;;;;;4158463;28;20041;-68
2021/12/05 06:49:18;;;;;;;17.40;7.45;;;25.30;52.70;;;;;;4159406;28;20073;-68
2021/12/05 06:51:27;;;;;;;20.67;7.55;;;25.30;53.10;;;;;;4157877;28;20156;-68
2021/12/05 06:53:31;;;;;;;13.95;7.38;;;25.40;52.70;;;;;;4157387;28;20045;-68
2021/12/05 06:55:36;;;;;;;14.10;7.75;;;25.40;52.10;;;;;;4155806;28;20052;-68
2021/12/05 06:57:41;;;;;;;15.35;7.65;;;25.40;52.10;;;;;;4154860;28;20049;-67
2021/12/05 06:59:47;;;;;;;18.63;8.45;;;25.40;52.70;;;;;;4157162;28;20045;-68
2021/12/05 07:01:52;;;;;;;19.00;7.72;;;25.60;52.30;;;;;;4156734;28;20065;-68
2021/12/05 07:04:04;;;;;;;16.75;7.80;;;25.60;51.90;;;;;;4155694;28;20041;-68
2021/12/05 07:08:15;;;;;;;14.73;7.28;;;25.50;52.70;;;;;;4156572;28;20131;-68
2021/12/05 07:10:21;;;;;;;14.70;8.98;;;25.60;52.70;;;;;;4155854;28;20468;-68
2021/12/05 07:16:45;;;;;;;14.95;7.57;;;25.60;53.20;;;;;;4155620;28;20037;-67
2021/12/05 07:25:47;;;;;;;16.95;7.25;;;25.70;52.90;;;;;;4156448;28;20060;-67
2021/12/05 07:43:38;;;;;;;13.20;7.15;;;25.80;53.60;;;;;;4157343;28;20124;-68
2021/12/05 07:45:51;;;;;;;17.80;7.70;;;25.80;53.50;;;;;;4154011;28;20206;-68
2021/12/05 07:47:56;;;;;;;;;;;25.80;54.20;;;;;;4157000;28;20042;-68
2021/12/05 07:50:08;;;;;;;14.25;7.63;;;25.80;53.70;;;;;;4155051;28;19963;-68
2021/12/05 07:52:17;;;;;;;15.35;7.53;;;25.80;53.80;;;;;;4157228;28;20034;-68
2021/12/05 07:54:33;;;;;;;21.23;7.60;;;25.80;54.40;;;;;;4156878;28;20073;-68
2021/12/05 07:56:47;;;;;;;14.00;7.60;;;25.80;54.00;;;;;;4155585;28;20049;-69
2021/12/05 08:14:55;;;;;;;14.07;8.27;;;25.90;54.10;;;;;;4154634;28;20076;-69
2021/12/05 08:17:01;;;;;;;16.10;8.43;;;25.90;54.20;;;;;;4158399;28;20258;-69
2021/12/05 08:19:05;;;;;;;20.95;9.20;;;25.90;54.70;;;;;;4159584;28;20041;-69
2021/12/05 08:21:10;;;;;;;16.90;8.88;;;25.90;54.80;;;;;;4159385;28;20046;-69
2021/12/05 08:23:16;;;;;;;17.38;7.35;;;25.90;54.80;;;;;;4149507;28;20586;-68
2021/12/05 08:25:24;;;;;;;16.58;7.88;;;25.90;55.30;;;;;;4157613;28;20041;-68
2021/12/05 08:27:28;;;;;;;12.30;7.32;;;25.90;55.90;;;;;;4158286;28;20061;-68
2021/12/05 08:29:42;;;;;;;23.00;8.10;;;25.90;54.80;;;;;;4159074;28;20543;-68
2021/12/05 08:41:13;;;;;;;13.20;7.70;;;25.90;55.60;;;;;;4157222;28;20049;-68
2021/12/05 08:43:27;;;;;;;;;;;25.90;55.90;;;;;;4155642;28;20290;-68
2021/12/05 09:51:19;;;;;;;21.85;9.60;;;25.80;57.60;;;;;;4155214;28;20417;-67
2021/12/05 10:08:06;;;;;;;16.88;8.68;;;25.70;58.50;;;;;;4155547;28;20396;-66
2021/12/05 10:14:45;;;;;;;23.48;12.10;;;25.60;59.20;;;;;;4154772;28;20053;-66
2021/12/05 10:37:25;;;;;;;49.72;24.67;;;25.10;60.40;;;;;;4184007;28;20609;-66
2021/12/05 10:39:30;;;;;;;55.15;24.23;;;25.10;60.90;;;;;;4157206;28;20443;-66
2021/12/05 10:41:47;;;;;;;42.20;21.83;;;25.10;61.00;;;;;;4154227;28;20098;-66
2021/12/05 10:43:54;;;;;;;45.85;20.30;;;25.10;61.50;;;;;;4153814;28;20394;-68
2021/12/05 10:46:07;;;;;;;36.92;19.13;;;25.10;61.70;;;;;;4154683;28;20321;-69
2021/12/05 10:48:29;;;;;;;45.72;18.05;;;25.10;61.80;;;;;;4154699;28;20147;-67
2021/12/05 10:50:46;;;;;;;39.65;17.10;;;25.00;62.20;;;;;;4155782;28;20547;-66
2021/12/05 10:53:20;;;;;;;33.20;14.60;;;24.90;62.70;;;;;;4157326;28;20033;-67
2021/12/05 10:55:31;;;;;;;33.95;13.75;;;24.80;62.90;;;;;;4157329;28;20056;-68
2021/12/05 10:57:41;;;;;;;35.42;14.82;;;24.70;62.70;;;;;;4156921;28;20041;-67
2021/12/05 10:59:45;;;;;;;24.40;13.95;;;24.70;62.70;;;;;;4153703;28;20041;-67
2021/12/05 11:01:55;;;;;;;35.97;15.68;;;24.70;62.80;;;;;;4152203;28;20029;-68
2021/12/05 11:04:13;;;;;;;33.63;16.95;;;24.70;62.60;;;;;;4156281;28;20752;-68
2021/12/05 11:06:34;;;;;;;35.70;17.40;;;24.60;62.70;;;;;;4157169;28;20042;-68
2021/12/05 11:08:40;;;;;;;42.57;19.63;;;24.60;62.90;;;;;;4156569;28;20460;-68
2021/12/05 11:10:45;;;;;;;31.25;18.45;;;24.60;63.20;;;;;;4156070;28;20053;-68
2021/12/05 11:12:49;;;;;;;33.00;17.15;;;24.60;64.00;;;;;;4156335;28;20049;-68
2021/12/05 11:14:57;;;;;;;33.63;17.10;;;24.50;63.90;;;;;;4154188;28;20042;-68
2021/12/05 11:17:10;;;;;;;37.33;18.45;;;24.60;64.40;;;;;;4155372;28;20077;-67
2021/12/05 11:19:26;;;;;;;34.60;19.20;;;24.60;64.50;;;;;;4156615;28;20048;-68
2021/12/05 11:21:34;;;;;;;41.53;19.02;;;24.60;64.60;;;;;;4157361;28;20038;-67
2021/12/05 11:23:38;;;;;;;34.70;19.25;;;24.50;64.70;;;;;;4157208;28;20041;-67
2021/12/05 11:25:44;;;;;;;34.95;18.20;;;24.50;64.70;;;;;;4156210;28;20050;-68
2021/12/05 11:27:51;;;;;;;36.17;19.60;;;24.50;64.80;;;;;;4123163;28;20331;-67
2021/12/05 11:30:02;;;;;;;36.00;20.20;;;24.50;65.10;;;;;;4136847;28;20463;-67
2021/12/05 11:32:10;;;;;;;36.22;19.52;;;24.50;65.50;;;;;;4137332;28;20077;-67
2021/12/05 11:34:28;;;;;;;38.05;21.90;;;24.40;65.50;;;;;;4138352;28;20049;-67
2021/12/05 11:36:36;;;;;;;36.67;21.50;;;24.40;65.20;;;;;;4137464;28;20046;-67
2021/12/05 11:38:42;;;;;;;44.80;22.15;;;24.30;65.30;;;;;;4138281;28;20049;-67
2021/12/05 11:40:51;;;;;;;44.78;23.55;;;24.40;65.40;;;;;;4137250;28;21083;-67
2021/12/05 11:43:02;;;;;;;41.00;23.55;;;24.40;65.50;;;;;;4136615;28;20587;-67
2021/12/05 11:45:07;;;;;;;42.78;23.98;;;24.30;65.70;;;;;;4138380;28;20239;-66
2021/12/05 11:47:13;;;;;;;47.22;25.08;;;24.30;65.80;;;;;;4138373;28;20099;-67
2021/12/05 11:49:21;;;;;;;45.50;24.05;;;24.30;66.30;;;;;;4136965;28;20058;-67
2021/12/05 11:51:33;;;;;;;48.15;25.23;;;24.20;66.60;;;;;;4138872;28;20096;-67
2021/12/05 11:53:42;;;;;;;47.85;27.60;;;24.10;66.60;;;;;;4134088;28;20083;-67
2021/12/05 11:55:46;;;;;;;44.80;27.25;;;24.10;66.90;;;;;;4135102;28;20049;-67
2021/12/05 11:57:51;;;;;;;45.78;27.90;;;24.10;67.10;;;;;;4138735;28;20042;-67
2021/12/05 12:00:05;;;;;;;53.03;27.38;;;24.10;67.30;;;;;;4150099;28;20431;-67
2021/12/05 12:02:16;;;;;;;50.40;27.02;;;24.00;67.50;;;;;;4156115;28;20049;-66
2021/12/05 12:04:24;;;;;;;50.78;25.38;;;24.00;67.90;;;;;;4160018;28;20107;-65
2021/12/05 12:06:28;;;;;;;45.20;24.92;;;24.00;67.90;;;;;;4157772;28;20042;-67
2021/12/05 12:08:33;;;;;;;51.08;25.85;;;23.90;68.10;;;;;;4160497;28;20045;-67
2021/12/05 12:10:46;;;;;;;48.08;24.98;;;23.90;67.60;;;;;;4159295;28;20487;-66
2021/12/05 12:12:59;;;;;;;49.45;25.63;;;23.90;68.00;;;;;;4158544;28;20591;-68
2021/12/05 12:15:03;;;;;;;47.33;24.77;;;23.90;68.30;;;;;;4158783;28;20045;-68
2021/12/05 12:17:16;;;;;;;50.70;26.40;;;23.90;68.30;;;;;;4159443;28;20443;-68
2021/12/05 12:19:22;;;;;;;45.78;24.70;;;23.90;68.50;;;;;;4159618;28;20468;-67
2021/12/05 12:21:37;;;;;;;49.72;25.95;;;23.90;68.60;;;;;;4157083;28;20404;-67
2021/12/05 12:23:41;;;;;;;49.20;24.90;;;23.80;68.80;;;;;;4159819;28;20037;-67
2021/12/05 12:25:49;;;;;;;47.08;25.65;;;23.80;68.70;;;;;;4159722;28;20060;-68
2021/12/05 12:27:56;;;;;;;48.97;26.25;;;23.80;68.80;;;;;;4158869;28;20113;-68
2021/12/05 12:30:01;;;;;;;54.47;27.77;;;23.80;69.00;;;;;;4159776;28;20057;-68
2021/12/05 12:32:12;;;;;;;42.85;26.65;;;23.80;69.20;;;;;;4157906;28;20539;-68
2021/12/05 12:34:20;;;;;;;47.58;26.38;;;23.70;69.20;;;;;;4158051;28;20128;-68
2021/12/05 12:36:33;;;;;;;42.83;27.17;;;23.70;69.40;;;;;;4160343;28;20346;-68
2021/12/05 12:38:44;;;;;;;47.92;27.10;;;23.60;69.70;;;;;;4160300;28;20399;-68
2021/12/05 12:41:01;;;;;;;52.67;27.25;;;23.60;70.10;;;;;;4159220;28;20045;-69
2021/12/05 12:43:06;;;;;;;55.42;28.98;;;23.60;71.20;;;;;;4160609;28;20046;-68
2021/12/05 12:45:18;;;;;;;58.65;28.60;;;23.60;71.10;;;;;;4159489;28;20518;-68
2021/12/05 12:47:35;;;;;;;47.78;28.85;;;23.60;71.30;;;;;;4160434;28;20057;-68
2021/12/05 12:49:44;;;;;;;51.88;30.08;;;23.50;71.70;;;;;;4159693;28;20171;-68
2021/12/05 12:51:58;;;;;;;57.38;29.50;;;23.50;71.90;;;;;;4159881;28;20053;-68
2021/12/05 12:54:12;;;;;;;56.92;30.70;;;23.50;71.90;;;;;;4156172;28;20664;-68
2021/12/05 12:56:23;;;;;;;;;;;23.40;72.10;;;;;;4162578;28;20057;-68
2021/12/05 12:58:42;;;;;;;55.67;28.98;;;23.40;72.30;;;;;;4158810;28;19931;-68
2021/12/05 13:00:47;;;;;;;60.83;30.25;;;23.40;72.40;;;;;;4160142;28;20051;-68
2021/12/05 13:03:13;;;;;;;50.20;29.65;;;23.40;72.20;;;;;;4162760;28;20045;-68
2021/12/05 13:10:10;;;;;;;60.60;30.45;;;23.30;72.20;;;;;;4158084;28;20057;-68
2021/12/05 13:12:15;;;;;;;51.25;29.20;;;23.30;72.30;;;;;;4159839;28;20516;-68
2021/12/05 13:14:20;;;;;;;51.33;30.35;;;23.30;72.30;;;;;;4160283;28;20053;-68
2021/12/05 13:16:28;;;;;;;52.08;30.98;;;23.30;72.50;;;;;;4158084;28;20053;-68
2021/12/05 13:18:35;;;;;;;55.08;31.27;;;23.30;72.60;;;;;;4157976;28;20049;-69
2021/12/05 13:20:42;;;;;;;56.88;32.38;;;23.20;72.70;;;;;;4156259;28;20091;-69
2021/12/05 13:23:07;;;;;;;58.78;31.92;;;23.20;73.10;;;;;;4157736;28;20076;-68
2021/12/05 13:25:13;;;;;;;55.45;32.83;;;23.20;73.40;;;;;;4157512;28;20041;-68
2021/12/05 13:27:36;;;;;;;53.72;31.52;;;23.10;73.40;;;;;;4163615;28;20084;-68
2021/12/05 13:29:51;;;;;;;53.30;30.88;;;23.10;73.70;;;;;;4156503;28;20057;-68
2021/12/05 13:32:08;;;;;;;68.80;30.75;;;23.10;73.90;;;;;;4157423;28;20140;-67
2021/12/05 13:34:19;;;;;;;49.72;29.83;;;23.00;74.10;;;;;;4149970;28;20634;-68
2021/12/05 13:36:33;;;;;;;50.17;29.00;;;22.90;74.10;;;;;;4158763;28;20099;-68
2021/12/05 13:38:40;;;;;;;48.43;28.67;;;22.90;74.20;;;;;;4159390;28;20124;-68
2021/12/05 13:40:44;;;;;;;49.70;28.95;;;22.90;74.30;;;;;;4171451;28;20045;-67
2021/12/05 13:43:05;;;;;;;46.40;28.38;;;22.80;74.40;;;;;;4157932;28;20466;-68
2021/12/05 13:45:25;;;;;;;48.25;28.20;;;22.80;74.20;;;;;;4159055;28;20049;-68
2021/12/05 13:47:33;;;;;;;46.10;25.88;;;22.80;74.30;;;;;;4157837;28;20064;-68
2021/12/05 13:49:38;;;;;;;52.88;26.15;;;22.80;74.20;;;;;;4159595;28;20049;-68
2021/12/05 13:51:42;;;;;;;49.42;26.52;;;22.80;74.20;;;;;;4158268;28;20049;-68
2021/12/05 13:53:49;;;;;;;47.95;26.42;;;22.80;74.10;;;;;;4158353;28;20073;-68
2021/12/05 13:55:54;;;;;;;44.60;25.92;;;22.80;74.30;;;;;;4159423;28;20079;-68
2021/12/05 13:58:16;;;;;;;48.88;26.38;;;22.80;74.50;;;;;;4158931;28;20045;-68
2021/12/05 14:00:39;;;;;;;49.30;28.90;;;22.70;75.10;;;;;;4156141;28;20048;-69
2021/12/05 14:02:52;;;;;;;47.67;27.90;;;22.70;75.60;;;;;;4156744;28;20246;-68
2021/12/05 14:04:56;;;;;;;51.67;28.10;;;22.60;75.50;;;;;;4158384;28;20067;-68
2021/12/05 14:07:12;;;;;;;43.28;26.83;;;22.60;75.20;;;;;;4154116;28;20119;-68
2021/12/05 14:09:20;;;;;;;48.85;27.80;;;22.60;75.20;;;;;;4158426;28;20065;-68
2021/12/05 14:11:25;;;;;;;53.05;28.15;;;22.60;75.00;;;;;;4156159;28;20038;-68
2021/12/05 14:13:29;;;;;;;52.65;29.38;;;22.50;74.90;;;;;;4158031;28;20218;-68
2021/12/05 14:15:35;;;;;;;46.22;29.73;;;22.60;75.10;;;;;;4157902;28;20042;-68
2021/12/05 14:17:42;;;;;;;49.45;28.52;;;22.50;74.90;;;;;;4155453;28;20041;-68
2021/12/05 14:19:50;;;;;;;54.20;30.38;;;22.50;75.10;;;;;;4157853;28;20069;-68
2021/12/05 14:21:55;;;;;;;55.28;30.65;;;22.40;74.90;;;;;;4157442;28;20265;-68
2021/12/05 14:24:01;;;;;;;51.38;30.45;;;22.40;75.40;;;;;;4155974;28;20447;-69
2021/12/05 14:26:16;;;;;;;56.13;31.45;;;22.30;75.60;;;;;;4158088;28;20038;-68
2021/12/05 14:28:21;;;;;;;56.08;31.20;;;22.30;75.70;;;;;;4155525;28;20053;-68
2021/12/05 14:30:29;;;;;;;46.05;30.33;;;22.30;75.80;;;;;;4157593;28;20322;-68
2021/12/05 14:32:35;;;;;;;53.85;31.05;;;22.30;75.90;;;;;;4157465;28;20132;-69
2021/12/05 14:34:40;;;;;;;59.03;30.95;;;22.20;75.70;;;;;;4155643;28;20042;-68
2021/12/05 14:36:54;;;;;;;51.72;30.90;;;22.20;76.00;;;;;;4157910;28;20053;-69
2021/12/05 14:39:12;;;;;;;56.08;30.83;;;22.20;76.10;;;;;;4155453;28;20753;-68
2021/12/05 14:41:29;;;;;;;55.22;29.63;;;22.20;76.20;;;;;;4156897;28;20747;-68
2021/12/05 14:43:33;;;;;;;48.75;30.20;;;22.10;76.20;;;;;;4154681;28;20068;-68
2021/12/05 14:45:40;;;;;;;53.13;30.33;;;22.10;76.20;;;;;;4155665;28;20381;-68
2021/12/05 14:47:45;;;;;;;56.33;31.05;;;22.10;76.30;;;;;;4157903;28;20061;-69
2021/12/05 14:49:55;;;;;;;47.15;29.80;;;22.00;76.40;;;;;;4158170;28;20543;-68
2021/12/05 14:52:01;;;;;;;47.15;29.98;;;22.00;76.40;;;;;;4157663;28;20053;-68
2021/12/05 14:54:06;;;;;;;52.33;28.33;;;22.00;76.40;;;;;;4157786;28;20080;-68
2021/12/05 14:56:10;;;;;;;56.80;29.58;;;22.00;76.60;;;;;;4158306;28;20499;-69
2021/12/05 14:58:15;;;;;;;47.25;29.17;;;22.00;76.70;;;;;;4156196;28;20057;-68
2021/12/05 15:00:29;;;;;;;50.70;29.08;;;22.00;76.80;;;;;;4157391;28;20095;-68
2021/12/05 15:02:34;;;;;;;;;;;22.00;76.90;;;;;;4158553;28;20290;-68
2021/12/05 15:04:46;;;;;;;48.22;29.00;;;21.90;76.90;;;;;;4158150;28;19925;-68
2021/12/05 15:06:51;;;;;;;45.70;29.63;;;21.80;76.90;;;;;;4158268;28;20045;-68
2021/12/05 15:08:55;;;;;;;49.20;29.15;;;21.80;76.60;;;;;;4157450;28;20060;-69
2021/12/05 15:11:07;;;;;;;45.17;29.05;;;21.80;76.70;;;;;;4157710;28;20104;-69
2021/12/05 15:13:12;;;;;;;50.17;30.35;;;21.80;76.90;;;;;;4158098;28;20053;-69
2021/12/05 15:15:16;;;;;;;48.63;30.30;;;21.80;77.90;;;;;;4157951;28;20057;-69
2021/12/05 15:17:26;;;;;;;48.60;30.65;;;21.80;77.20;;;;;;4158029;28;20041;-69
2021/12/05 15:19:30;;;;;;;50.15;29.50;;;21.70;77.40;;;;;;4157869;28;20099;-69
2021/12/05 15:21:42;;;;;;;50.03;29.98;;;21.70;78.10;;;;;;4157333;28;20462;-69
2021/12/05 15:23:46;;;;;;;55.42;34.47;;;21.70;78.80;;;;;;4157937;28;20095;-69
2021/12/05 15:25:51;;;;;;;54.72;36.92;;;21.60;79.70;;;;;;4158097;28;20045;-70
2021/12/05 15:27:56;;;;;;;61.53;37.35;;;21.60;80.40;;;;;;4161200;28;20095;-70
2021/12/05 15:30:09;;;;;;;65.95;39.45;;;21.50;80.40;;;;;;4145038;28;20443;-69
2021/12/05 15:32:22;;;;;;;60.33;38.67;;;21.50;80.90;;;;;;4161079;28;20080;-69
2021/12/05 15:34:35;;;;;;;65.45;39.03;;;21.40;81.10;;;;;;4161207;28;20467;-69
2021/12/05 15:36:40;;;;;;;64.35;39.20;;;21.40;81.20;;;;;;4161291;28;20060;-69
2021/12/05 15:38:44;;;;;;;63.70;38.45;;;21.40;81.70;;;;;;4161173;28;20073;-69
2021/12/05 15:40:50;;;;;;;62.00;38.17;;;21.30;81.20;;;;;;4161037;28;20057;-69
2021/12/05 15:43:05;;;;;;;63.35;38.15;;;21.30;81.20;;;;;;4161233;28;20056;-69
2021/12/05 15:45:11;;;;;;;58.83;37.55;;;21.30;81.40;;;;;;4160513;28;20103;-69
2021/12/05 15:47:18;;;;;;;65.22;37.55;;;21.40;81.10;;;;;;4161105;28;20129;-69
2021/12/05 15:49:25;;;;;;;55.47;36.53;;;21.30;81.20;;;;;;4184435;28;20056;-69
2021/12/05 15:51:30;;;;;;;59.95;37.25;;;21.30;81.30;;;;;;4144451;28;20136;-70
2021/12/05 15:53:35;;;;;;;58.70;36.72;;;21.30;81.40;;;;;;4160510;28;20049;-69
2021/12/05 15:55:42;;;;;;;55.72;38.08;;;21.20;81.50;;;;;;4159666;28;20734;-68
2021/12/05 15:57:49;;;;;;;62.05;37.95;;;21.20;81.40;;;;;;4172912;28;20130;-69
2021/12/05 15:59:53;;;;;;;56.50;35.78;;;21.20;81.30;;;;;;4164800;28;20095;-69
2021/12/05 16:02:00;;;;;;;52.63;36.10;;;21.20;81.40;;;;;;4141411;28;20046;-68
2021/12/05 16:04:05;;;;;;;56.10;37.50;;;21.20;81.60;;;;;;4141027;28;20076;-68
2021/12/05 16:06:13;;;;;;;66.85;36.70;;;21.20;81.60;;;;;;4141772;28;20544;-69
2021/12/05 16:08:18;;;;;;;56.33;34.22;;;21.20;81.60;;;;;;4141759;28;20052;-69
2021/12/05 16:10:23;;;;;;;46.92;30.60;;;21.10;80.80;;;;;;4141077;28;20092;-68
2021/12/05 16:12:28;;;;;;;46.60;28.38;;;21.20;79.50;;;;;;4141478;28;20053;-69
2021/12/05 16:14:35;;;;;;;51.25;28.20;;;21.20;78.70;;;;;;4109407;28;20061;-69
2021/12/05 16:16:40;;;;;;;45.67;26.80;;;21.20;78.60;;;;;;4141549;28;20045;-69
2021/12/05 16:18:48;;;;;;;38.85;24.52;;;21.30;78.40;;;;;;4141602;28;20058;-69
2021/12/05 16:20:55;;;;;;;38.25;24.95;;;21.30;78.30;;;;;;4140861;28;20049;-69
2021/12/05 16:23:20;;;;;;;44.50;25.15;;;21.40;78.20;;;;;;4141115;28;20180;-68